Bookmark and Share
Track history (hours):
 

Alaskan Explorer

Last reported at 2014-Apr-19 15:25 UTC. Time now 2014-Apr-19 17:19 UTC.
Position N 33°38' W 120°59'.

Length 288 m; draft 18.2 m.

Type: Tanker. MMSI: 303294000.

NotesDate/timePositionNaut miles runAvg speedWind from/ knotsBaromVisibWave heightAir tempDewpointWater temp
2014-Apr-19 15:25N 33°38' W 120°59'1212.5
2014-Apr-19 14:26N 33°41' W 121°13'1313.6
2014-Apr-19 13:30N 33°51' W 121°23'1313.5
2014-Apr-19 12:34N 33°60' W 121°34'1313.2
2014-Apr-19 11:33N 34°10' W 121°44'1412.9
2014-Apr-19 10:27N 34°20' W 121°56'1212.7
2014-Apr-19 09:33N 34°29' W 122°05'1313.1
2014-Apr-19 08:33N 34°39' W 122°16'1313.0
2014-Apr-19 07:33N 34°48' W 122°26'1313.0
2014-Apr-19 06:33N 34°58' W 122°37'1413.1
2014-Apr-19 05:29N 35°08' W 122°49'1213.2
2014-Apr-19 04:33N 35°17' W 122°58'1313.1
2014-Apr-19 03:33N 35°27' W 123°09'1313.1
2014-Apr-19 02:33N 35°39' W 123°17'1313.3
2014-Apr-19 01:33N 35°51' W 123°24'1313.3
2014-Apr-19 00:33N 36°03' W 123°31'1313.2
2014-Apr-18 23:33N 36°15' W 123°37'1312.9
2014-Apr-18 22:33N 36°27' W 123°44'5612.9
2014-Apr-18 18:10N 37°18' W 124°14'1710.4
2014-Apr-18 16:30N 37°34' W 124°23'1413.5
2014-Apr-18 15:26N 37°47' W 124°30'  

Dump ship's entire track history

sailing weather and tide predictions

Alaskan Explorer — WBD9918 — position and weather